createdAt,value
2022-10-22T00:01:22.978Z,15.89
2022-10-22T00:03:51.659Z,15.87
2022-10-22T00:06:21.359Z,15.85
2022-10-22T00:08:49.720Z,15.85
2022-10-22T00:11:20.792Z,15.84
2022-10-22T00:13:49.402Z,15.84
2022-10-22T00:16:17.771Z,15.83
2022-10-22T00:18:46.119Z,15.83
2022-10-22T00:21:14.597Z,15.81
2022-10-22T00:23:44.991Z,15.81
2022-10-22T00:26:13.628Z,15.80
2022-10-22T00:28:42.092Z,15.81
2022-10-22T00:31:10.774Z,15.81
2022-10-22T00:33:39.246Z,15.80
2022-10-22T00:36:08.660Z,15.78
2022-10-22T00:38:36.970Z,15.78
2022-10-22T00:41:07.161Z,15.77
2022-10-22T00:43:53.613Z,15.77
2022-10-22T00:46:21.966Z,15.75
2022-10-22T00:48:50.753Z,15.74
2022-10-22T00:51:21.167Z,15.75
2022-10-22T00:53:53.563Z,15.74
2022-10-22T00:56:24.672Z,15.72
2022-10-22T00:58:57.171Z,15.70
2022-10-22T01:01:28.710Z,15.66
2022-10-22T01:03:57.120Z,15.63
2022-10-22T01:06:29.053Z,15.62
2022-10-22T01:09:12.144Z,15.58
2022-10-22T01:12:03.265Z,15.58
2022-10-22T01:14:41.675Z,15.57
2022-10-22T01:17:16.088Z,15.58
2022-10-22T01:20:00.842Z,15.57
2022-10-22T01:22:34.824Z,15.55
2022-10-22T01:25:10.284Z,15.57
2022-10-22T01:28:03.314Z,15.56
2022-10-22T01:30:33.111Z,15.57
2022-10-22T01:33:06.691Z,15.55
2022-10-22T01:35:38.894Z,15.59
2022-10-22T01:38:12.350Z,15.58
2022-10-22T01:40:41.267Z,15.59
2022-10-22T01:43:12.316Z,15.60
2022-10-22T01:45:45.683Z,15.59
2022-10-22T01:48:31.236Z,15.59
2022-10-22T01:51:22.293Z,15.57
2022-10-22T01:53:55.681Z,15.58
2022-10-22T01:56:42.781Z,15.58
2022-10-22T01:59:24.775Z,15.59
2022-10-22T02:02:01.107Z,15.58
2022-10-22T02:04:36.429Z,15.58
2022-10-22T02:07:08.687Z,15.61
2022-10-22T02:09:37.833Z,15.63
2022-10-22T02:12:08.302Z,15.63
2022-10-22T02:14:41.220Z,15.62
2022-10-22T02:17:16.341Z,15.62
2022-10-22T02:19:52.567Z,15.63
2022-10-22T02:22:21.762Z,15.64
2022-10-22T02:24:51.095Z,15.67
2022-10-22T02:27:28.214Z,15.67
2022-10-22T02:30:04.314Z,15.67
2022-10-22T02:32:40.228Z,15.68
2022-10-22T02:35:11.663Z,15.69
2022-10-22T02:37:41.416Z,15.69
2022-10-22T02:40:11.053Z,15.71
2022-10-22T02:42:42.526Z,15.74
2022-10-22T02:45:12.089Z,15.75
2022-10-22T02:47:41.677Z,15.75
2022-10-22T02:50:10.730Z,15.78
2022-10-22T02:52:39.599Z,15.78
2022-10-22T02:55:09.342Z,15.78
2022-10-22T02:57:37.756Z,15.78
2022-10-22T03:00:07.544Z,15.78
2022-10-22T03:02:35.921Z,15.80
2022-10-22T03:05:06.318Z,15.81
2022-10-22T03:07:34.587Z,15.80
2022-10-22T03:10:02.833Z,15.81
2022-10-22T03:12:31.109Z,15.82
2022-10-22T03:14:59.425Z,15.84
2022-10-22T03:17:27.694Z,15.83
2022-10-22T03:19:55.926Z,15.84
2022-10-22T03:22:29.175Z,15.84
2022-10-22T03:25:00.699Z,15.86
2022-10-22T03:27:30.716Z,15.85
2022-10-22T03:30:00.122Z,15.88
2022-10-22T03:32:28.433Z,15.89
2022-10-22T03:34:56.714Z,15.89
2022-10-22T03:37:27.603Z,15.86
2022-10-22T03:39:56.577Z,15.88
2022-10-22T03:42:25.615Z,15.88
2022-10-22T03:44:54.297Z,15.89
2022-10-22T03:47:24.419Z,15.86
2022-10-22T03:49:52.993Z,15.88
2022-10-22T03:52:21.308Z,15.89
2022-10-22T03:54:50.922Z,15.89
2022-10-22T03:57:19.207Z,15.89
2022-10-22T03:59:48.409Z,15.90
2022-10-22T04:02:16.692Z,15.90
2022-10-22T04:04:44.955Z,15.90
2022-10-22T04:07:13.207Z,15.92
2022-10-22T04:09:41.486Z,15.91
2022-10-22T04:12:11.284Z,15.91
2022-10-22T04:14:39.550Z,15.91
2022-10-22T04:17:07.854Z,15.92
2022-10-22T04:19:36.181Z,15.91
2022-10-22T04:22:04.481Z,15.91
2022-10-22T04:24:33.597Z,15.91
2022-10-22T04:27:01.836Z,15.91
2022-10-22T04:29:31.435Z,15.91
2022-10-22T04:31:59.729Z,15.91
2022-10-22T04:34:29.707Z,15.92
2022-10-22T04:36:58.007Z,15.93
2022-10-22T04:39:26.210Z,15.95
2022-10-22T04:41:54.477Z,15.96
2022-10-22T04:44:22.746Z,15.97
2022-10-22T04:46:52.547Z,15.99
2022-10-22T04:49:20.875Z,15.99
2022-10-22T04:51:49.115Z,15.99
2022-10-22T04:54:17.371Z,16.01
2022-10-22T04:56:45.583Z,16.02
2022-10-22T04:59:14.021Z,16.02
2022-10-22T05:01:44.971Z,16.03
2022-10-22T05:04:17.806Z,16.02
2022-10-22T05:06:46.601Z,16.04
2022-10-22T05:09:17.971Z,16.05
2022-10-22T05:11:49.138Z,16.05
2022-10-22T05:14:19.936Z,16.06
2022-10-22T05:16:48.935Z,16.07
2022-10-22T05:19:23.977Z,16.07
2022-10-22T05:21:52.458Z,16.08
2022-10-22T05:24:21.185Z,16.10
2022-10-22T05:26:51.526Z,16.09
2022-10-22T05:29:20.205Z,16.12
2022-10-22T05:31:48.537Z,16.13
2022-10-22T05:34:18.869Z,16.16
2022-10-22T05:36:47.605Z,16.18
2022-10-22T05:39:15.952Z,16.20
2022-10-22T05:41:44.200Z,16.22
2022-10-22T05:44:13.935Z,16.24
2022-10-22T05:46:43.456Z,16.27
2022-10-22T05:49:16.129Z,16.28
2022-10-22T05:51:45.727Z,16.30
2022-10-22T05:54:22.161Z,16.31
2022-10-22T05:56:50.807Z,16.32
2022-10-22T05:59:19.336Z,16.35
2022-10-22T06:01:47.659Z,16.36
2022-10-22T06:04:16.977Z,16.37
2022-10-22T06:06:49.446Z,16.38
2022-10-22T06:09:21.813Z,16.40
2022-10-22T06:11:51.842Z,16.42
2022-10-22T06:14:22.041Z,16.43
2022-10-22T06:16:50.624Z,16.45
2022-10-22T06:19:22.403Z,16.48
2022-10-22T06:21:52.049Z,16.49
2022-10-22T06:24:20.607Z,16.52
2022-10-22T06:26:51.657Z,16.52
2022-10-22T06:29:19.995Z,16.54
2022-10-22T06:31:48.375Z,16.54
2022-10-22T06:34:18.850Z,16.56
2022-10-22T06:36:47.602Z,16.58
2022-10-22T06:39:18.924Z,16.59
2022-10-22T06:41:47.472Z,16.59
2022-10-22T06:44:17.658Z,16.62
2022-10-22T06:46:46.081Z,16.62
2022-10-22T06:49:16.143Z,16.63
2022-10-22T06:51:44.797Z,16.65
2022-10-22T06:54:13.317Z,16.66
2022-10-22T06:56:42.936Z,16.67
2022-10-22T06:59:11.202Z,16.68
2022-10-22T07:01:40.813Z,16.68
2022-10-22T07:04:11.146Z,16.68
2022-10-22T07:06:39.392Z,16.68
2022-10-22T07:09:07.776Z,16.68
2022-10-22T07:11:43.509Z,16.68
2022-10-22T07:14:12.730Z,16.69
2022-10-22T07:16:43.094Z,16.70
2022-10-22T07:19:11.450Z,16.73
2022-10-22T07:21:39.963Z,16.75
2022-10-22T07:24:09.110Z,16.75
2022-10-22T07:26:37.370Z,16.76
2022-10-22T07:29:07.431Z,16.79
2022-10-22T07:31:35.868Z,16.81
2022-10-22T07:34:04.389Z,16.83
2022-10-22T07:36:32.738Z,16.84
2022-10-22T07:39:02.178Z,16.85
2022-10-22T07:41:32.323Z,16.86
2022-10-22T07:44:00.817Z,16.89
2022-10-22T07:46:30.575Z,16.90
2022-10-22T07:48:58.831Z,16.92
2022-10-22T07:51:28.045Z,16.93
2022-10-22T07:53:56.304Z,16.93
2022-10-22T07:56:24.539Z,16.95
2022-10-22T07:58:52.789Z,16.97
2022-10-22T08:01:21.229Z,16.97
2022-10-22T08:03:51.113Z,16.95
2022-10-22T08:06:19.415Z,16.97
2022-10-22T08:08:47.725Z,16.98
2022-10-22T08:11:16.279Z,16.99
2022-10-22T08:13:45.801Z,16.99
2022-10-22T08:16:15.104Z,17.01
2022-10-22T08:18:43.700Z,17.02
2022-10-22T08:21:14.207Z,17.03
2022-10-22T08:23:42.455Z,17.07
2022-10-22T08:26:11.571Z,17.09
2022-10-22T08:28:39.880Z,17.10
2022-10-22T08:31:09.632Z,17.13
2022-10-22T08:33:39.407Z,17.14
2022-10-22T08:36:08.705Z,17.17
2022-10-22T08:38:38.407Z,17.20
2022-10-22T08:41:16.303Z,17.21
2022-10-22T08:44:16.891Z,17.23
2022-10-22T08:47:10.569Z,17.26
2022-10-22T08:49:42.317Z,17.28
2022-10-22T08:52:14.804Z,17.29
2022-10-22T08:54:52.983Z,17.32
2022-10-22T08:57:40.610Z,17.33
2022-10-22T09:00:14.780Z,17.35
2022-10-22T09:03:06.402Z,17.37
2022-10-22T09:05:49.175Z,17.38
2022-10-22T09:08:20.827Z,17.42
2022-10-22T09:10:56.655Z,17.44
2022-10-22T09:13:25.270Z,17.48
2022-10-22T09:15:57.581Z,17.49
2022-10-22T09:18:39.168Z,17.48
2022-10-22T09:21:19.719Z,17.52
2022-10-22T09:24:01.155Z,17.52
2022-10-22T09:26:33.204Z,17.52
2022-10-22T09:29:02.481Z,17.55
2022-10-22T09:31:33.187Z,17.56
2022-10-22T09:34:07.330Z,17.58
2022-10-22T09:36:36.978Z,17.59
2022-10-22T09:39:05.424Z,17.61
2022-10-22T09:41:35.099Z,17.64
2022-10-22T09:44:03.313Z,17.67
2022-10-22T09:46:43.905Z,17.67
2022-10-22T09:49:17.822Z,17.73
2022-10-22T09:51:53.828Z,17.76
2022-10-22T09:54:24.835Z,17.80
2022-10-22T09:56:58.247Z,17.83
2022-10-22T09:59:31.626Z,17.85
2022-10-22T10:02:19.628Z,17.88
2022-10-22T10:04:51.747Z,17.91
2022-10-22T10:07:22.949Z,17.95
2022-10-22T10:09:52.242Z,17.97
2022-10-22T10:12:36.626Z,18.01
2022-10-22T10:15:17.242Z,18.05
2022-10-22T10:17:56.700Z,18.10
2022-10-22T10:20:36.702Z,18.12
2022-10-22T10:23:16.293Z,18.17
2022-10-22T10:25:57.957Z,18.21
2022-10-22T10:28:53.915Z,18.25
2022-10-22T10:31:35.693Z,18.30
2022-10-22T10:34:15.430Z,18.36
2022-10-22T10:37:01.057Z,18.39
2022-10-22T10:39:38.062Z,18.42
2022-10-22T10:42:20.232Z,18.45
2022-10-22T10:45:02.264Z,18.50
2022-10-22T10:48:02.954Z,18.51
2022-10-22T10:50:40.475Z,18.53
2022-10-22T10:53:19.004Z,18.56
2022-10-22T10:56:00.917Z,18.59
2022-10-22T10:58:39.807Z,18.62
2022-10-22T11:01:23.806Z,18.65
2022-10-22T11:04:23.173Z,18.68
2022-10-22T11:07:05.895Z,18.71
2022-10-22T11:09:44.637Z,18.76
2022-10-22T11:12:22.605Z,18.80
2022-10-22T11:15:01.696Z,18.87
2022-10-22T11:17:40.193Z,18.93
2022-10-22T11:20:18.300Z,18.94
2022-10-22T11:23:17.462Z,19.03
2022-10-22T11:25:45.865Z,19.10
2022-10-22T11:28:19.552Z,19.18
2022-10-22T11:30:56.281Z,19.29
2022-10-22T11:33:34.048Z,19.38
2022-10-22T11:36:05.608Z,19.48
2022-10-22T11:38:35.963Z,19.57
2022-10-22T11:41:11.925Z,19.66
2022-10-22T11:43:59.519Z,19.73
2022-10-22T11:46:39.418Z,19.76
2022-10-22T11:49:23.895Z,19.80
2022-10-22T11:51:53.721Z,19.85
2022-10-22T11:54:42.801Z,19.88
2022-10-22T11:57:24.322Z,19.90
2022-10-22T11:59:57.499Z,19.94
2022-10-22T12:02:42.812Z,19.98
2022-10-22T12:05:46.209Z,20.01
2022-10-22T12:08:23.971Z,20.02
2022-10-22T12:11:05.651Z,20.05
2022-10-22T12:13:53.790Z,20.09
2022-10-22T12:16:32.483Z,20.12
2022-10-22T12:19:17.910Z,20.16
2022-10-22T12:21:50.657Z,20.18
2022-10-22T12:24:21.915Z,20.23
2022-10-22T12:26:52.644Z,20.26
2022-10-22T12:29:25.616Z,20.28
2022-10-22T12:31:54.976Z,20.30
2022-10-22T12:34:25.489Z,20.33
2022-10-22T12:36:55.448Z,20.34
2022-10-22T12:39:27.977Z,20.36
2022-10-22T12:41:56.800Z,20.44
2022-10-22T12:44:25.260Z,20.54
2022-10-22T12:46:56.142Z,20.68
2022-10-22T12:49:34.544Z,20.82
2022-10-22T12:52:08.718Z,21.03
2022-10-22T12:54:41.186Z,21.23
2022-10-22T12:57:15.109Z,21.42
2022-10-22T12:59:49.565Z,21.58
2022-10-22T13:02:24.339Z,21.70
2022-10-22T13:05:28.034Z,21.85
2022-10-22T13:08:07.010Z,21.94
2022-10-22T13:10:38.299Z,22.06
2022-10-22T13:13:07.404Z,22.13
2022-10-22T13:15:39.746Z,22.19
2022-10-22T13:18:18.373Z,22.20
2022-10-22T13:20:58.828Z,22.19
2022-10-22T13:23:31.119Z,22.17
2022-10-22T13:26:02.647Z,22.14
2022-10-22T13:28:33.500Z,22.10
2022-10-22T13:31:04.416Z,22.07
2022-10-22T13:33:36.243Z,22.02
2022-10-22T13:36:05.245Z,21.94
2022-10-22T13:38:34.948Z,21.86
2022-10-22T13:41:04.800Z,21.79
2022-10-22T13:43:33.033Z,21.73
2022-10-22T13:46:01.828Z,21.65
2022-10-22T13:48:31.821Z,21.58
2022-10-22T13:51:00.084Z,21.51
2022-10-22T13:53:30.503Z,21.45
2022-10-22T13:56:00.091Z,21.38
2022-10-22T13:58:28.424Z,21.31
2022-10-22T14:00:59.439Z,21.24
2022-10-22T14:03:31.851Z,21.18
2022-10-22T14:06:00.728Z,21.10
2022-10-22T14:08:29.923Z,21.03
2022-10-22T14:10:59.574Z,20.94
2022-10-22T14:13:28.068Z,20.86
2022-10-22T14:15:56.481Z,20.81
2022-10-22T14:18:29.044Z,20.72
2022-10-22T14:20:59.953Z,20.67
2022-10-22T14:23:30.465Z,20.62
2022-10-22T14:26:01.896Z,20.54
2022-10-22T14:28:34.170Z,20.51
2022-10-22T14:31:05.758Z,20.44
2022-10-22T14:33:35.032Z,20.39
2022-10-22T14:36:03.336Z,20.35
2022-10-22T14:38:31.766Z,20.30
2022-10-22T14:41:02.240Z,20.24
2022-10-22T14:43:32.224Z,20.19
2022-10-22T14:46:00.531Z,20.17
2022-10-22T14:48:28.854Z,20.12
2022-10-22T14:50:57.132Z,20.06
2022-10-22T14:53:25.376Z,20.02
2022-10-22T14:55:55.615Z,19.98
2022-10-22T14:58:25.288Z,19.92
2022-10-22T15:00:53.594Z,19.89
2022-10-22T15:03:21.864Z,19.86
2022-10-22T15:05:55.803Z,19.83
2022-10-22T15:08:24.289Z,19.77
2022-10-22T15:11:00.886Z,19.73
2022-10-22T15:13:31.539Z,19.70
2022-10-22T15:16:00.891Z,19.67
2022-10-22T15:18:29.921Z,19.62
2022-10-22T15:21:02.253Z,19.58
2022-10-22T15:23:30.800Z,19.56
2022-10-22T15:25:59.275Z,19.53
2022-10-22T15:28:27.920Z,19.50
2022-10-22T15:30:59.693Z,19.47
2022-10-22T15:33:29.573Z,19.43
2022-10-22T15:35:58.643Z,19.40
2022-10-22T15:41:05.519Z,19.32
2022-10-22T15:43:34.449Z,19.27
2022-10-22T15:46:14.296Z,19.24
2022-10-22T15:48:43.389Z,19.19
2022-10-22T15:51:14.741Z,19.15
2022-10-22T15:53:43.786Z,19.12
2022-10-22T15:56:13.090Z,19.08
2022-10-22T15:58:41.358Z,19.05
2022-10-22T16:01:13.366Z,18.99
2022-10-22T16:03:42.425Z,18.94
2022-10-22T16:06:10.972Z,18.90
2022-10-22T16:08:40.249Z,18.86
2022-10-22T16:11:08.568Z,18.83
2022-10-22T16:13:37.612Z,18.80
2022-10-22T16:16:08.011Z,18.76
2022-10-22T16:18:37.924Z,18.70
2022-10-22T16:21:06.482Z,18.66
2022-10-22T16:23:35.395Z,18.59
2022-10-22T16:26:03.906Z,18.56
2022-10-22T16:31:06.317Z,18.46
2022-10-22T16:33:41.390Z,18.40
2022-10-22T16:36:14.113Z,18.34
2022-10-22T16:38:42.482Z,18.28
2022-10-22T16:41:14.053Z,18.24
2022-10-22T16:43:44.233Z,18.19
2022-10-22T16:46:13.225Z,18.13
2022-10-22T16:48:45.976Z,18.08
2022-10-22T16:51:17.971Z,18.04
2022-10-22T16:53:46.556Z,18.01
2022-10-22T16:56:17.298Z,17.94
2022-10-22T16:58:47.635Z,17.89
2022-10-22T17:01:20.548Z,17.85
2022-10-22T17:03:49.083Z,17.79
2022-10-22T17:06:18.637Z,17.74
2022-10-22T17:08:47.839Z,17.70
2022-10-22T17:11:18.761Z,17.66
2022-10-22T17:13:49.060Z,17.62
2022-10-22T17:16:21.213Z,17.57
2022-10-22T17:18:50.109Z,17.53
2022-10-22T17:21:20.430Z,17.49
2022-10-22T17:23:49.016Z,17.44
2022-10-22T17:26:20.885Z,17.36
2022-10-22T17:28:49.867Z,17.31
2022-10-22T17:31:21.269Z,17.26
2022-10-22T17:33:51.161Z,17.19
2022-10-22T17:36:21.787Z,17.08
2022-10-22T17:38:53.207Z,17.05
2022-10-22T17:41:23.979Z,16.97
2022-10-22T17:43:52.542Z,16.92
2022-10-22T17:46:23.607Z,16.88
2022-10-22T17:48:52.840Z,16.84
2022-10-22T17:51:24.642Z,16.79
2022-10-22T17:53:53.110Z,16.76
2022-10-22T17:56:23.842Z,16.75
2022-10-22T17:58:52.590Z,16.72
2022-10-22T18:01:23.539Z,16.71
2022-10-22T18:03:52.608Z,16.69
2022-10-22T18:06:23.518Z,16.66
2022-10-22T18:08:51.821Z,16.62
2022-10-22T18:11:25.207Z,16.57
2022-10-22T18:13:55.717Z,16.54
2022-10-22T18:16:24.460Z,16.50
2022-10-22T18:18:56.086Z,16.45
2022-10-22T18:21:28.275Z,16.41
2022-10-22T18:23:58.968Z,16.38
2022-10-22T18:26:27.414Z,16.36
2022-10-22T18:28:55.857Z,16.33
2022-10-22T18:31:26.960Z,16.33
2022-10-22T18:33:56.224Z,16.35
2022-10-22T18:36:28.431Z,16.36
2022-10-22T18:39:00.494Z,16.36
2022-10-22T18:41:30.919Z,16.36
2022-10-22T18:44:01.739Z,16.37
2022-10-22T18:46:31.571Z,16.36
2022-10-22T18:49:00.407Z,16.37
2022-10-22T18:51:31.846Z,16.35
2022-10-22T18:54:22.209Z,16.36
2022-10-22T18:56:49.239Z,16.34
2022-10-22T18:59:21.385Z,16.32
2022-10-22T19:01:51.301Z,16.28
2022-10-22T19:04:19.612Z,16.24
2022-10-22T19:06:49.445Z,16.23
2022-10-22T19:09:18.520Z,16.20
2022-10-22T19:11:47.836Z,16.18
2022-10-22T19:14:19.457Z,16.16
2022-10-22T19:16:47.845Z,16.12
2022-10-22T19:19:19.124Z,16.10
2022-10-22T19:21:50.069Z,16.07
2022-10-22T19:24:20.916Z,16.04
2022-10-22T19:26:50.219Z,16.00
2022-10-22T19:29:20.589Z,15.98
2022-10-22T19:31:51.073Z,15.94
2022-10-22T19:34:20.092Z,15.93
2022-10-22T19:36:51.636Z,15.89
2022-10-22T19:39:20.947Z,15.87
2022-10-22T19:41:49.531Z,15.83
2022-10-22T19:44:17.944Z,15.80
2022-10-22T19:46:46.240Z,15.77
2022-10-22T19:49:18.921Z,15.72
2022-10-22T19:51:51.708Z,15.68
2022-10-22T19:54:20.555Z,15.66
2022-10-22T19:56:49.826Z,15.62
2022-10-22T19:59:20.658Z,15.58
2022-10-22T20:01:49.071Z,15.56
2022-10-22T20:04:18.718Z,15.51
2022-10-22T20:06:47.378Z,15.48
2022-10-22T20:09:17.096Z,15.46
2022-10-22T20:11:45.489Z,15.43
2022-10-22T20:14:15.013Z,15.38
2022-10-22T20:16:43.976Z,15.34
2022-10-22T20:19:16.193Z,15.32
2022-10-22T20:21:45.597Z,15.29
2022-10-22T20:24:14.248Z,15.27
2022-10-22T20:26:47.309Z,15.24
2022-10-22T20:29:18.943Z,15.22
2022-10-22T20:31:47.912Z,15.20
2022-10-22T20:34:16.336Z,15.16
2022-10-22T20:36:44.676Z,15.15
2022-10-22T20:39:16.998Z,15.11
2022-10-22T20:41:46.758Z,15.09
2022-10-22T20:44:18.036Z,15.07
2022-10-22T20:46:46.671Z,15.06
2022-10-22T20:49:17.682Z,15.02
2022-10-22T20:51:46.513Z,15.00
2022-10-22T20:54:16.388Z,14.98
2022-10-22T20:56:47.904Z,14.96
2022-10-22T20:59:17.114Z,14.94
2022-10-22T21:01:49.518Z,14.92
2022-10-22T21:04:19.558Z,14.90
2022-10-22T21:06:50.158Z,14.88
2022-10-22T21:09:18.608Z,14.85
2022-10-22T21:11:48.952Z,14.83
2022-10-22T21:14:19.951Z,14.81
2022-10-22T21:16:50.813Z,14.80
2022-10-22T21:19:20.328Z,14.78
2022-10-22T21:21:48.666Z,14.75
2022-10-22T21:24:17.179Z,14.74
2022-10-22T21:26:48.482Z,14.72
2022-10-22T21:29:16.801Z,14.71
2022-10-22T21:31:45.073Z,14.68
2022-10-22T21:34:13.822Z,14.66
2022-10-22T21:36:42.741Z,14.64
2022-10-22T21:39:11.542Z,14.62
2022-10-22T21:41:40.056Z,14.60
2022-10-22T21:44:09.733Z,14.55
2022-10-22T21:46:38.500Z,14.54
2022-10-22T21:49:06.949Z,14.52
2022-10-22T21:51:38.142Z,14.50
2022-10-22T21:54:06.672Z,14.49
2022-10-22T21:56:37.027Z,14.47
2022-10-22T21:59:06.998Z,14.47
2022-10-22T22:01:37.263Z,14.45
2022-10-22T22:04:05.789Z,14.43
2022-10-22T22:06:35.158Z,14.42
2022-10-22T22:09:05.247Z,14.40
2022-10-22T22:11:34.039Z,14.39
2022-10-22T22:14:02.320Z,14.37
2022-10-22T22:16:33.711Z,14.36
2022-10-22T22:19:07.349Z,14.35
2022-10-22T22:21:37.088Z,14.34
2022-10-22T22:24:06.669Z,14.32
2022-10-22T22:26:35.460Z,14.29
2022-10-22T22:29:04.021Z,14.27
2022-10-22T22:31:35.600Z,14.26
2022-10-22T22:34:07.689Z,14.23
2022-10-22T22:36:38.574Z,14.21
2022-10-22T22:39:08.958Z,14.19
2022-10-22T22:41:37.303Z,14.18
2022-10-22T22:44:06.063Z,14.17
2022-10-22T22:46:34.549Z,14.14
2022-10-22T22:49:04.381Z,14.12
2022-10-22T22:51:33.176Z,14.10
2022-10-22T22:54:02.284Z,14.09
2022-10-22T22:56:32.463Z,14.04
2022-10-22T22:59:00.879Z,14.03
2022-10-22T23:01:31.935Z,14.02
2022-10-22T23:04:02.749Z,14.00
2022-10-22T23:06:35.925Z,13.98
2022-10-22T23:09:05.820Z,13.97
2022-10-22T23:11:34.609Z,13.94
2022-10-22T23:14:05.971Z,13.93
2022-10-22T23:16:37.260Z,13.93
2022-10-22T23:19:07.185Z,13.91
2022-10-22T23:21:39.799Z,13.86
2022-10-22T23:24:12.058Z,13.86
2022-10-22T23:26:43.586Z,13.83
2022-10-22T23:29:15.625Z,13.82
2022-10-22T23:31:45.104Z,13.79
2022-10-22T23:36:49.115Z,13.77
2022-10-22T23:39:20.763Z,13.74
2022-10-22T23:41:49.036Z,13.73
2022-10-22T23:44:17.271Z,13.71
2022-10-22T23:46:45.528Z,13.70
2022-10-22T23:49:14.718Z,13.69
2022-10-22T23:51:43.073Z,13.68
2022-10-22T23:54:17.743Z,13.66
2022-10-22T23:56:46.539Z,13.66
